Time;durP1;ratioP1;P1;durP2;ratioP2;P2;SDS_P1;SDS_P2;PMS_P1;PMS_P2;Temp;Humidity;BMP_temperature;BMP_pressure;BME280_temperature;BME280_humidity;BME280_pressure;Samples;Min_cycle;Max_cycle;Signal;HPM_P1;HPM_P2
2023/09/12 00:00:09;;;;;;;60.03;37.83;;;18.90;99.90;;;18.11;100.00;100788.69;4964872;28;20201;-77
2023/09/12 00:02:35;;;;;;;40.47;30.20;;;18.90;99.90;;;18.06;100.00;100787.38;4963612;28;20118;-77
2023/09/12 00:05:01;;;;;;;36.83;26.15;;;18.80;99.90;;;18.00;100.00;100794.84;4952286;28;20076;-77
2023/09/12 00:07:27;;;;;;;57.88;38.88;;;18.80;99.90;;;17.98;100.00;100795.94;4956274;28;20101;-77
2023/09/12 00:09:52;;;;;;;57.40;37.22;;;18.80;99.90;;;17.93;100.00;100788.31;4968259;28;20071;-77
2023/09/12 00:12:24;;;;;;;42.72;31.98;;;18.80;99.90;;;17.95;100.00;100788.19;4965811;28;20098;-78
2023/09/12 00:14:50;;;;;;;53.72;35.55;;;18.80;99.90;;;17.96;100.00;100790.72;4963774;28;20086;-78
2023/09/12 00:17:16;;;;;;;45.95;33.38;;;18.80;99.90;;;18.02;100.00;100790.25;4968634;28;20025;-77
2023/09/12 00:19:43;;;;;;;47.85;34.17;;;18.90;99.90;;;18.06;100.00;100796.19;4956992;28;20039;-77
2023/09/12 00:22:09;;;;;;;38.90;31.05;;;18.90;99.90;;;18.10;100.00;100797.66;4955418;28;20038;-78
2023/09/12 00:24:34;;;;;;;62.70;22.75;;;18.90;99.90;;;18.12;100.00;100805.53;4954316;28;20120;-78
2023/09/12 00:27:00;;;;;;;23.38;18.52;;;18.80;99.90;;;17.98;100.00;100798.59;4963568;28;20031;-76
2023/09/12 00:29:26;;;;;;;18.80;16.67;;;18.80;99.90;;;17.85;100.00;100790.69;4967041;28;20587;-77
2023/09/12 00:31:51;;;;;;;18.55;15.25;;;18.70;99.90;;;17.77;100.00;100795.72;4963108;28;20039;-77
2023/09/12 00:34:17;;;;;;;22.70;17.38;;;18.60;99.90;;;17.68;100.00;100804.41;4965831;28;20039;-77
2023/09/12 00:36:44;;;;;;;24.35;18.55;;;18.50;99.90;;;17.63;100.00;100797.63;4968652;28;20452;-77
2023/09/12 00:39:10;;;;;;;39.65;32.25;;;18.50;99.90;;;17.59;100.00;100795.28;4962564;28;20041;-77
2023/09/12 00:41:35;;;;;;;37.25;26.30;;;18.40;99.90;;;17.57;100.00;100797.22;4967672;28;20142;-77
2023/09/12 00:44:01;;;;;;;35.08;27.02;;;18.40;99.90;;;17.57;100.00;100805.22;4966459;28;20512;-77
2023/09/12 00:46:28;;;;;;;38.47;29.00;;;18.40;99.90;;;17.56;100.00;100803.53;4964503;28;20043;-77
2023/09/12 00:48:55;;;;;;;18.20;14.52;;;18.40;99.90;;;17.53;100.00;100806.41;4960757;28;20031;-78
2023/09/12 00:51:22;;;;;;;9.43;7.95;;;18.40;99.90;;;17.47;100.00;100804.19;4964396;28;20082;-77
2023/09/12 00:53:49;;;;;;;9.43;8.23;;;18.30;99.90;;;17.41;100.00;100806.34;4968332;28;20042;-78
2023/09/12 00:56:14;;;;;;;826.40;35.33;;;18.20;99.90;;;17.35;100.00;100803.31;4966129;28;20079;-77
2023/09/12 00:58:41;;;;;;;11.05;9.77;;;18.20;99.90;;;17.24;100.00;100806.75;4964958;28;20039;-78
2023/09/12 01:01:06;;;;;;;9.73;7.63;;;18.10;99.90;;;17.17;100.00;100800.16;4961283;28;20031;-77
2023/09/12 01:03:32;;;;;;;7.80;7.10;;;18.00;99.90;;;17.10;100.00;100801.56;4954535;28;20441;-77
2023/09/12 01:05:59;;;;;;;40.63;31.17;;;18.00;99.90;;;17.09;100.00;100805.22;4965576;28;20031;-78
2023/09/12 01:08:25;;;;;;;21.15;17.25;;;17.90;99.90;;;17.06;100.00;100802.75;4964339;28;20492;-77
2023/09/12 01:10:55;;;;;;;33.13;26.90;;;17.90;99.90;;;17.08;100.00;100807.00;4964076;28;20035;-77
2023/09/12 01:13:21;;;;;;;60.75;43.38;;;17.90;99.90;;;17.12;100.00;100805.81;4945240;28;20891;-78
2023/09/12 01:15:47;;;;;;;33.65;26.60;;;18.00;99.90;;;17.15;100.00;100804.78;4967358;28;20043;-77
2023/09/12 01:18:13;;;;;;;63.08;45.15;;;18.00;99.90;;;17.18;100.00;100810.69;4968025;28;20038;-77
2023/09/12 01:20:51;;;;;;;78.55;48.75;;;18.10;99.90;;;17.22;100.00;100798.03;4966911;28;20513;-77
2023/09/12 01:23:49;;;;;;;68.00;46.35;;;18.10;99.90;;;17.27;100.00;100800.34;4947352;28;20031;-77
2023/09/12 01:26:40;;;;;;;69.43;48.80;;;18.20;99.90;;;17.31;100.00;100801.81;4962584;28;20035;-77
2023/09/12 01:29:07;;;;;;;48.72;35.15;;;18.20;99.90;;;17.32;100.00;100804.38;4951954;28;20031;-77
2023/09/12 01:31:37;;;;;;;18.73;15.70;;;18.20;99.90;;;17.22;100.00;100798.03;4964299;28;20039;-77
2023/09/12 01:34:12;;;;;;;15.77;14.13;;;18.10;99.90;;;17.10;100.00;100797.09;4962850;28;20054;-77
2023/09/12 01:36:38;;;;;;;21.90;18.33;;;18.00;99.90;;;17.04;100.00;100797.56;4961529;28;20058;-77
2023/09/12 01:39:04;;;;;;;29.88;23.60;;;17.90;99.90;;;16.99;100.00;100797.88;4949661;28;20095;-77
2023/09/12 01:41:35;;;;;;;33.85;24.50;;;17.90;99.90;;;16.95;100.00;100796.44;4970718;28;20043;-77
2023/09/12 01:44:02;;;;;;;44.28;30.02;;;17.90;99.90;;;16.96;100.00;100794.63;4966060;28;20584;-77
2023/09/12 01:46:31;;;;;;;73.50;45.42;;;17.80;99.90;;;16.94;100.00;100797.38;4954061;28;20027;-76
2023/09/12 01:48:59;;;;;;;70.45;47.33;;;17.80;99.90;;;16.89;100.00;100794.22;4963589;28;20041;-77
2023/09/12 01:51:25;;;;;;;74.80;48.30;;;17.80;99.90;;;16.93;100.00;100794.81;4966839;28;20037;-77
2023/09/12 01:53:53;;;;;;;79.43;50.03;;;17.80;99.90;;;16.98;100.00;100795.34;4964738;28;20043;-77
2023/09/12 01:56:19;;;;;;;70.95;46.67;;;17.90;99.90;;;16.99;100.00;100792.56;4966181;28;20154;-77
2023/09/12 01:58:45;;;;;;;66.43;44.13;;;17.90;99.90;;;17.05;100.00;100785.13;4953757;28;20035;-77
2023/09/12 02:01:11;;;;;;;66.43;42.92;;;18.00;99.90;;;17.10;100.00;100789.13;4960384;28;20043;-77
2023/09/12 02:03:37;;;;;;;62.97;44.33;;;18.00;99.90;;;17.16;100.00;100782.50;4965503;28;20035;-77
2023/09/12 02:06:02;;;;;;;51.53;33.78;;;18.00;99.90;;;17.18;100.00;100785.91;4960402;28;20603;-77
2023/09/12 02:08:28;;;;;;;96.40;34.65;;;18.10;99.90;;;17.16;100.00;100780.69;4960929;28;20023;-76
2023/09/12 02:10:55;;;;;;;48.28;35.13;;;18.00;99.90;;;17.12;100.00;100783.69;4962762;28;20062;-77
2023/09/12 02:13:20;;;;;;;55.55;37.90;;;18.00;99.90;;;17.06;100.00;100774.34;4960435;28;20042;-77
2023/09/12 02:15:46;;;;;;;44.92;34.03;;;18.00;99.90;;;17.06;100.00;100777.00;4966542;28;20101;-77
2023/09/12 02:18:12;;;;;;;29.75;21.85;;;18.00;99.90;;;17.06;100.00;100771.69;4953673;28;20031;-77
2023/09/12 02:20:40;;;;;;;93.00;20.75;;;17.90;99.90;;;16.98;100.00;100769.59;4960968;28;20749;-77
2023/09/12 02:23:06;;;;;;;69.18;40.53;;;17.80;99.90;;;16.88;100.00;100768.56;4962375;28;20121;-77
2023/09/12 02:25:32;;;;;;;27.27;16.85;;;17.80;99.90;;;16.84;100.00;100772.41;4963194;28;20413;-77
2023/09/12 02:27:57;;;;;;;54.30;36.15;;;17.70;99.90;;;16.79;100.00;100770.03;4966420;28;20485;-77
2023/09/12 02:30:23;;;;;;;26.08;20.05;;;17.70;99.90;;;16.73;100.00;100769.63;4964144;28;20031;-77
2023/09/12 02:32:49;;;;;;;538.40;54.03;;;17.60;99.90;;;16.65;100.00;100772.84;4962930;28;20046;-77
2023/09/12 02:35:14;;;;;;;18.40;15.98;;;17.50;99.90;;;16.54;100.00;100776.28;4959954;28;20493;-78
2023/09/12 02:37:40;;;;;;;13.68;12.27;;;17.40;99.90;;;16.45;100.00;100776.91;4965644;28;20031;-77
2023/09/12 02:40:07;;;;;;;16.15;9.40;;;17.30;99.90;;;16.39;100.00;100772.03;4968311;28;20034;-77
2023/09/12 02:42:33;;;;;;;15.43;10.95;;;17.30;99.90;;;16.34;100.00;100767.03;4953507;28;20056;-78
2023/09/12 02:44:58;;;;;;;16.75;14.40;;;17.20;99.90;;;16.29;100.00;100771.00;4961103;28;20023;-77
2023/09/12 02:47:24;;;;;;;20.55;16.10;;;17.20;99.90;;;16.27;100.00;100772.91;4958446;28;20055;-77
2023/09/12 02:49:50;;;;;;;54.38;36.38;;;17.10;99.90;;;16.28;100.00;100766.63;4965961;28;20047;-77
2023/09/12 02:52:15;;;;;;;26.05;15.70;;;17.10;99.90;;;16.28;100.00;100763.97;4962069;28;20030;-77
2023/09/12 02:54:41;;;;;;;42.00;31.67;;;17.10;99.90;;;16.27;100.00;100767.59;4964790;28;20067;-77
2023/09/12 02:57:07;;;;;;;58.95;39.97;;;17.20;99.90;;;16.29;100.00;100765.66;4960093;28;20033;-77
2023/09/12 02:59:32;;;;;;;68.13;45.13;;;17.20;99.90;;;16.36;100.00;100772.25;4962204;28;20035;-77
2023/09/12 03:01:58;;;;;;;58.45;38.90;;;17.20;99.90;;;16.45;100.00;100781.38;4964005;28;20062;-77
2023/09/12 03:04:28;;;;;;;63.03;19.27;;;17.30;99.90;;;16.38;100.00;100776.50;4952666;28;20027;-77
2023/09/12 03:06:53;;;;;;;852.42;57.45;;;17.20;99.90;;;16.27;100.00;100779.06;4947722;28;20803;-77
2023/09/12 03:09:19;;;;;;;8.25;6.97;;;17.20;99.90;;;16.17;100.00;100784.13;4959100;28;20030;-77
2023/09/12 03:11:45;;;;;;;7.53;6.68;;;17.10;99.90;;;16.13;100.00;100792.44;4951862;28;20023;-77
2023/09/12 03:14:11;;;;;;;29.60;15.35;;;17.00;99.90;;;16.11;100.00;100786.38;4967291;28;20050;-77
2023/09/12 03:16:38;;;;;;;10.32;9.18;;;17.00;99.90;;;16.08;100.00;100784.78;4945754;28;20043;-77
2023/09/12 03:19:04;;;;;;;16.88;13.00;;;17.00;99.90;;;16.06;100.00;100786.69;4962345;28;20027;-76
2023/09/12 03:21:30;;;;;;;40.72;30.30;;;17.00;99.90;;;16.07;100.00;100777.78;4959867;28;20094;-77
2023/09/12 03:23:56;;;;;;;36.28;22.95;;;17.00;99.90;;;16.07;100.00;100779.56;4950946;28;20449;-77
2023/09/12 03:26:22;;;;;;;36.92;24.95;;;17.00;99.90;;;16.11;100.00;100770.44;4953359;28;20039;-77
2023/09/12 03:28:50;;;;;;;66.30;44.30;;;17.00;99.90;;;16.16;100.00;100771.00;4961388;28;20027;-77
2023/09/12 03:31:16;;;;;;;68.90;43.80;;;17.00;99.90;;;16.21;100.00;100763.53;4960044;28;20045;-77
2023/09/12 03:33:43;;;;;;;92.60;51.17;;;17.10;99.90;;;16.26;100.00;100763.22;4942934;28;20023;-77
2023/09/12 03:36:09;;;;;;;79.28;47.30;;;17.10;99.90;;;16.29;100.00;100769.16;4950379;28;20400;-77
2023/09/12 03:38:35;;;;;;;86.97;50.88;;;17.20;99.90;;;16.32;100.00;100760.13;4963625;28;20023;-77
2023/09/12 03:41:01;;;;;;;65.38;41.72;;;17.20;99.90;;;16.33;100.00;100761.84;4959583;28;20035;-77
2023/09/12 03:43:27;;;;;;;51.78;32.78;;;17.90;99.90;;;16.31;100.00;100766.41;4950757;28;20110;-77
2023/09/12 03:45:53;;;;;;;50.63;32.80;;;17.20;99.90;;;16.30;100.00;100768.19;4957649;28;20038;-77
2023/09/12 03:48:19;;;;;;;82.63;42.80;;;17.20;99.90;;;16.30;100.00;100781.47;4962494;28;20019;-77
2023/09/12 03:50:45;;;;;;;34.05;9.65;;;17.10;99.90;;;16.11;100.00;100784.59;4964652;28;20117;-77
2023/09/12 03:53:13;;;;;;;51.10;13.18;;;17.00;99.90;;;16.01;100.00;100780.03;4964058;28;20034;-77
2023/09/12 03:55:38;;;;;;;119.95;19.10;;;16.90;99.90;;;15.91;100.00;100780.63;4962026;28;20654;-77
2023/09/12 03:58:04;;;;;;;15.63;10.60;;;16.80;99.90;;;15.84;100.00;100786.47;4959909;28;20113;-77
2023/09/12 04:00:30;;;;;;;24.95;19.00;;;16.80;99.90;;;15.78;100.00;100785.91;4964110;28;20031;-77
2023/09/12 04:02:56;;;;;;;49.70;30.17;;;16.70;99.90;;;15.80;100.00;100780.50;4964594;28;20488;-77
2023/09/12 04:05:22;;;;;;;52.08;36.25;;;16.80;99.90;;;15.84;100.00;100775.84;4946807;28;20026;-77
2023/09/12 04:07:47;;;;;;;56.67;39.60;;;16.80;99.90;;;15.92;100.00;100768.22;4961330;28;20023;-77
2023/09/12 04:10:13;;;;;;;60.60;40.88;;;16.80;99.90;;;15.99;100.00;100770.34;4958987;28;20042;-77
2023/09/12 04:12:39;;;;;;;55.95;38.10;;;16.90;99.90;;;16.07;100.00;100764.50;4962147;28;20027;-77
2023/09/12 04:15:06;;;;;;;52.35;36.00;;;17.00;99.90;;;16.14;100.00;100767.59;4961621;28;20035;-77
2023/09/12 04:17:32;;;;;;;55.55;39.30;;;17.00;99.90;;;16.20;100.00;100767.16;4962873;28;20027;-77
2023/09/12 04:19:57;;;;;;;73.80;42.67;;;17.00;99.90;;;16.18;100.00;100759.28;4959503;28;20117;-77
2023/09/12 04:22:23;;;;;;;67.93;41.20;;;17.00;99.90;;;16.18;100.00;100761.94;4950714;28;20510;-77
2023/09/12 04:24:49;;;;;;;65.30;34.47;;;17.00;99.90;;;16.22;100.00;100765.25;4965524;28;20027;-77
2023/09/12 04:27:14;;;;;;;55.28;32.00;;;17.10;99.90;;;16.22;100.00;100767.03;4962633;28;20035;-77
2023/09/12 04:29:40;;;;;;;31.13;24.02;;;17.10;99.90;;;16.25;100.00;100772.16;4960627;28;20035;-76
2023/09/12 04:32:06;;;;;;;38.88;27.75;;;17.10;99.90;;;16.25;100.00;100773.00;4950132;28;20481;-78
2023/09/12 04:34:31;;;;;;;29.00;21.77;;;17.10;99.90;;;16.17;100.00;100768.19;4959214;28;20133;-77
2023/09/12 04:36:58;;;;;;;16.65;14.85;;;17.10;99.90;;;16.14;100.00;100772.91;4965667;28;20043;-77
2023/09/12 04:39:24;;;;;;;53.13;30.38;;;17.00;99.90;;;16.15;100.00;100777.25;4961657;28;20037;-77
2023/09/12 04:41:50;;;;;;;44.55;29.45;;;17.00;99.90;;;16.22;100.00;100775.88;4964160;28;20027;-77
2023/09/12 04:44:15;;;;;;;31.25;20.00;;;17.10;99.90;;;16.26;100.00;100777.34;4946320;28;20098;-77
2023/09/12 04:46:41;;;;;;;85.32;35.53;;;17.10;99.90;;;16.22;100.00;100777.66;4954471;28;20484;-77
2023/09/12 04:49:07;;;;;;;31.52;20.30;;;17.00;99.90;;;16.17;100.00;100777.97;4969730;28;20085;-77
2023/09/12 04:51:32;;;;;;;16.58;14.35;;;17.00;99.90;;;16.18;100.00;100777.03;4951147;28;20644;-77
2023/09/12 04:53:58;;;;;;;18.38;14.05;;;17.00;99.90;;;16.22;100.00;100780.31;4979398;28;20078;-77
2023/09/12 04:56:24;;;;;;;25.88;20.30;;;17.00;99.90;;;16.28;100.00;100791.38;4963989;28;20408;-77
2023/09/12 04:58:50;;;;;;;1098.38;74.35;;;17.00;99.90;;;16.22;100.00;100794.47;4965227;28;20519;-77
2023/09/12 05:01:16;;;;;;;30.65;22.85;;;17.00;99.90;;;16.19;100.00;100789.34;4966240;28;20595;-77
2023/09/12 05:03:43;;;;;;;37.95;25.50;;;16.90;99.90;;;16.23;100.00;100792.66;4948888;28;20555;-77
2023/09/12 05:06:10;;;;;;;31.05;22.85;;;17.00;99.90;;;16.29;100.00;100792.25;4964068;28;20031;-77
2023/09/12 05:08:36;;;;;;;41.97;28.52;;;17.10;99.90;;;16.39;100.00;100795.94;4961916;28;20445;-77
2023/09/12 05:11:02;;;;;;;32.17;23.55;;;17.10;99.90;;;16.52;100.00;100799.47;4949514;28;20067;-77
2023/09/12 05:13:29;;;;;;;33.70;25.65;;;17.20;99.90;;;16.67;100.00;100791.34;4965925;28;20488;-77
2023/09/12 05:15:56;;;;;;;37.53;25.83;;;17.30;99.90;;;16.81;100.00;100794.75;4957016;28;20034;-77
2023/09/12 05:18:22;;;;;;;40.53;25.30;;;17.50;99.90;;;16.92;100.00;100796.63;4963522;28;20042;-77
2023/09/12 05:20:48;;;;;;;37.25;22.17;;;17.60;99.90;;;17.07;100.00;100796.50;4961906;28;20038;-77
2023/09/12 05:23:13;;;;;;;35.85;23.00;;;17.70;99.90;;;17.29;100.00;100796.59;4955387;28;20477;-77
2023/09/12 05:25:39;;;;;;;40.47;20.92;;;17.80;99.90;;;17.38;100.00;100787.94;4967273;28;20035;-76
2023/09/12 05:28:05;;;;;;;36.47;20.50;;;18.00;99.90;;;17.50;100.00;100790.66;4965633;28;20031;-77
2023/09/12 05:30:31;;;;;;;34.75;18.15;;;18.10;99.90;;;17.70;100.00;100802.47;4953903;28;20035;-77
2023/09/12 05:32:56;;;;;;;37.15;18.55;;;18.20;99.90;;;17.87;100.00;100793.25;4962724;28;20125;-77
2023/09/12 05:35:22;;;;;;;32.30;18.15;;;18.40;99.90;;;17.98;100.00;100795.94;4956118;28;20687;-77
2023/09/12 05:37:48;;;;;;;28.98;17.73;;;18.50;99.90;;;18.13;100.00;100791.25;4965420;28;21201;-78
2023/09/12 05:40:13;;;;;;;35.47;17.65;;;18.60;99.90;;;18.36;100.00;100795.63;4954591;28;20027;-77
2023/09/12 05:42:39;;;;;;;43.28;17.88;;;18.80;99.90;;;18.80;100.00;100807.28;4963220;28;20074;-77
2023/09/12 05:45:07;;;;;;;38.63;17.50;;;19.00;99.90;;;19.06;98.19;100810.53;4961416;28;20030;-77
2023/09/12 05:47:32;;;;;;;35.22;17.05;;;19.30;99.90;;;19.59;96.01;100806.22;4968346;28;20034;-77
2023/09/12 05:49:59;;;;;;;33.50;15.68;;;19.60;99.90;;;20.05;91.45;100821.13;4964684;28;20412;-77
2023/09/12 05:52:25;;;;;;;26.70;16.55;;;19.90;99.90;;;20.32;90.21;100815.22;4944395;28;20035;-77
2023/09/12 05:54:50;;;;;;;33.15;15.60;;;20.10;99.90;;;20.59;88.07;100817.34;4960461;28;20037;-78
2023/09/12 05:57:16;;;;;;;28.23;15.02;;;20.40;99.90;;;21.07;86.23;100829.22;4962549;28;20050;-77
2023/09/12 05:59:42;;;;;;;35.38;17.83;;;20.70;99.90;;;22.20;81.22;100842.13;4955788;28;20113;-77
2023/09/12 06:02:10;;;;;;;28.20;16.85;;;21.20;99.90;;;22.79;77.80;100837.44;4964286;28;20600;-77
2023/09/12 06:04:36;;;;;;;28.95;16.15;;;21.60;99.90;;;22.27;78.31;100832.53;4962678;28;20035;-77
2023/09/12 06:07:03;;;;;;;27.20;16.35;;;21.80;99.90;;;22.16;78.94;100838.03;4962461;28;20073;-78
2023/09/12 06:09:29;;;;;;;27.35;14.80;;;21.90;99.90;;;21.91;79.78;100831.44;4946075;28;20042;-78
2023/09/12 06:11:54;;;;;;;36.75;14.07;;;21.90;99.90;;;22.03;79.67;100842.81;4965797;28;20031;-77
2023/09/12 06:14:20;;;;;;;30.08;13.90;;;22.00;99.90;;;22.02;79.57;100854.56;4963824;28;20066;-77
2023/09/12 06:16:46;;;;;;;33.25;15.40;;;22.00;99.90;;;22.51;78.45;100861.53;4961571;28;20168;-78
2023/09/12 06:19:13;;;;;;;28.10;14.15;;;22.20;99.90;;;22.67;77.82;100858.22;4962579;28;20042;-77
2023/09/12 06:21:38;;;;;;;27.20;12.82;;;22.40;99.90;;;23.41;75.34;100861.00;4963858;28;20030;-77
2023/09/12 06:24:23;;;;;;;32.55;13.68;;;22.80;99.90;;;23.48;73.56;100857.56;4967823;28;20043;-77
2023/09/12 06:26:49;;;;;;;25.23;11.88;;;23.00;99.90;;;23.38;72.45;100859.47;4964273;28;20026;-78
2023/09/12 06:29:15;;;;;;;29.05;12.85;;;23.20;99.90;;;23.97;71.96;100876.00;4962190;28;20433;-78
2023/09/12 06:31:41;;;;;;;23.08;12.68;;;23.50;99.90;;;24.88;69.15;100888.25;4968325;28;20030;-77
2023/09/12 06:34:07;;;;;;;27.17;12.18;;;23.90;99.90;;;25.21;68.11;100893.84;4953784;28;20031;-77
2023/09/12 06:36:33;;;;;;;25.45;11.18;;;24.30;99.90;;;25.09;68.01;100887.84;4960608;28;20118;-78
2023/09/12 06:39:00;;;;;;;28.83;12.07;;;24.50;99.90;;;25.32;68.06;100888.13;4961447;28;20042;-77
2023/09/12 06:41:27;;;;;;;28.35;10.75;;;24.70;99.90;;;25.82;66.80;100894.47;4948465;28;20516;-77
2023/09/12 06:43:57;;;;;;;25.40;10.63;;;25.30;99.90;;;27.50;62.84;100907.16;4966400;28;20034;-78
2023/09/12 06:46:23;;;;;;;25.73;10.15;;;26.20;99.90;;;29.64;57.84;100927.59;4963374;28;20024;-76
2023/09/12 06:48:50;;;;;;;26.27;10.43;;;27.50;99.90;;;30.35;55.17;100944.00;4961373;28;20071;-79
2023/09/12 06:51:17;;;;;;;23.77;10.32;;;28.50;99.90;;;30.60;54.09;100954.41;4952655;28;20042;-77
2023/09/12 06:53:43;;;;;;;26.35;11.80;;;28.80;99.90;;;29.09;56.93;100946.09;4962425;28;20042;-78
2023/09/12 06:56:09;;;;;;;25.80;11.77;;;28.50;99.90;;;27.93;58.78;100931.94;4965919;28;20405;-79
2023/09/12 06:58:35;;;;;;;33.25;13.10;;;27.70;99.90;;;26.54;61.31;100933.28;4962766;28;20043;-77
2023/09/12 07:01:05;;;;;;;26.83;12.05;;;26.80;99.90;;;25.68;63.80;100920.22;4961663;28;20035;-77
2023/09/12 07:03:35;;;;;;;34.20;12.55;;;26.30;99.90;;;25.35;65.79;100909.34;4958866;28;20513;-78
2023/09/12 07:06:01;;;;;;;34.08;13.25;;;25.90;99.90;;;26.28;64.29;100925.34;4964891;28;20031;-78
2023/09/12 07:08:29;;;;;;;24.02;11.93;;;26.10;99.90;;;27.82;60.92;100929.63;4966659;28;20026;-77
2023/09/12 07:10:56;;;;;;;32.30;13.85;;;27.10;99.90;;;29.50;57.72;100944.75;4962189;28;20031;-78
2023/09/12 07:13:25;;;;;;;33.58;14.77;;;28.30;99.90;;;30.65;54.72;100954.69;4960006;28;20107;-77
2023/09/12 07:15:51;;;;;;;40.95;15.07;;;29.40;99.90;;;31.02;53.60;100968.97;4962289;28;20039;-78
2023/09/12 07:18:18;;;;;;;27.77;14.70;;;29.90;99.90;;;30.00;54.57;100949.28;4964064;28;20400;-77
2023/09/12 07:20:45;;;;;;;30.70;14.50;;;29.70;99.90;;;30.16;54.84;100959.03;4952118;28;20073;-78
2023/09/12 07:23:11;;;;;;;33.08;14.88;;;29.70;99.90;;;30.47;53.87;100966.00;4962182;28;20050;-78
2023/09/12 07:25:41;;;;;;;36.67;13.95;;;30.00;99.90;;;30.72;53.32;100973.75;4959987;28;20039;-78
2023/09/12 07:28:10;;;;;;;37.78;15.30;;;30.40;99.90;;;31.09;52.75;100980.69;4962505;28;20038;-78
2023/09/12 07:30:37;;;;;;;36.25;16.67;;;30.60;99.90;;;30.83;53.45;100982.19;4963589;28;20092;-78
2023/09/12 07:33:04;;;;;;;36.92;16.13;;;30.80;99.90;;;31.29;52.87;100975.34;4947961;28;20562;-77
2023/09/12 07:35:30;;;;;;;34.13;16.30;;;31.20;99.90;;;31.72;51.62;100985.19;4943733;28;20031;-78
2023/09/12 07:37:56;;;;;;;33.08;16.15;;;31.60;99.90;;;32.22;50.91;100991.19;4958720;28;20054;-78
2023/09/12 07:40:22;;;;;;;25.38;15.38;;;32.00;99.90;;;32.36;50.58;100987.44;4952885;28;20500;-78
2023/09/12 07:42:48;;;;;;;26.50;15.30;;;32.10;99.90;;;31.71;51.42;100984.34;4964634;28;20042;-78
2023/09/12 07:45:13;;;;;;;33.50;16.02;;;31.70;99.90;;;30.74;52.55;100971.66;4964466;28;20428;-77
2023/09/12 07:47:39;;;;;;;24.75;15.88;;;31.00;99.90;;;29.67;55.16;100973.31;4960802;28;20534;-78
2023/09/12 07:50:06;;;;;;;35.85;15.43;;;30.40;99.90;;;29.28;56.10;100960.94;4960709;28;20045;-77
2023/09/12 07:52:32;;;;;;;31.42;16.38;;;29.80;99.90;;;28.98;57.10;100951.97;4965584;28;20121;-78
2023/09/12 07:55:03;;;;;;;26.10;14.80;;;29.60;99.90;;;29.02;55.73;100951.41;4952108;28;20114;-77
2023/09/12 07:57:29;;;;;;;22.52;14.13;;;29.30;99.90;;;28.93;56.69;100947.09;4962856;28;20437;-77
2023/09/12 07:59:56;;;;;;;29.77;16.60;;;29.50;99.90;;;29.36;56.39;100954.59;4943459;28;20028;-78
2023/09/12 08:02:23;;;;;;;22.85;14.90;;;29.70;99.90;;;29.53;55.24;100957.94;4950543;28;20039;-78
2023/09/12 08:04:55;;;;;;;29.00;15.38;;;30.00;99.90;;;30.16;54.21;100966.34;4955170;28;20081;-77
2023/09/12 08:07:21;;;;;;;28.75;16.65;;;30.50;99.90;;;30.61;53.33;100967.81;4945158;28;20028;-78
2023/09/12 08:09:53;;;;;;;29.95;15.90;;;31.10;99.90;;;31.34;52.71;100977.47;4962321;28;20037;-78
2023/09/12 08:12:22;;;;;;;24.23;14.23;;;31.80;99.90;;;31.88;51.23;100979.38;4945308;28;20449;-78
2023/09/12 08:14:48;;;;;;;23.33;14.50;;;32.30;99.90;;;31.92;50.71;100980.63;4959965;28;20689;-78
2023/09/12 08:17:15;;;;;;;26.00;15.60;;;32.10;99.90;;;32.11;49.98;100981.75;4967495;28;20050;-77
2023/09/12 08:19:41;;;;;;;27.27;15.27;;;32.80;99.90;;;32.62;48.57;100988.50;4956186;28;20117;-78
2023/09/12 08:22:08;;;;;;;28.23;14.05;;;33.20;99.80;;;32.84;48.69;101002.75;4972545;28;20415;-78
2023/09/12 08:24:36;;;;;;;23.92;13.80;;;33.30;99.70;;;32.56;49.25;101008.44;4947541;28;20058;-78
2023/09/12 08:27:02;;;;;;;25.75;12.93;;;32.90;98.70;;;31.48;50.07;100996.41;4966319;28;20473;-77
2023/09/12 08:29:29;;;;;;;22.83;12.80;;;32.20;99.20;;;30.62;52.00;100974.91;4968092;28;20026;-77
2023/09/12 08:31:55;;;;;;;22.00;12.68;;;31.50;99.90;;;30.28;52.94;100983.81;4966396;28;20031;-78
2023/09/12 08:34:21;;;;;;;21.88;13.25;;;31.20;99.90;;;30.04;54.14;100976.88;4966210;28;20118;-78
2023/09/12 08:36:47;;;;;;;21.25;13.30;;;30.60;99.90;;;29.24;56.01;100960.50;4944439;28;20027;-77
2023/09/12 08:39:22;;;;;;;27.10;13.10;;;30.10;99.90;;;29.17;56.29;100964.16;4973370;28;20119;-78
2023/09/12 08:41:49;;;;;;;19.48;13.05;;;29.70;99.90;;;28.89;57.09;100964.75;4950613;28;20058;-77
2023/09/12 08:44:15;;;;;;;28.15;14.02;;;29.50;99.90;;;28.73;58.00;100970.38;4966335;28;20096;-78
2023/09/12 08:46:42;;;;;;;24.48;15.65;;;29.10;99.90;;;28.45;58.70;100959.28;4971297;28;20107;-79
2023/09/12 08:49:09;;;;;;;26.83;17.20;;;29.00;99.90;;;28.47;59.66;100959.91;4962352;28;20031;-78
2023/09/12 08:51:39;;;;;;;28.17;17.88;;;28.70;99.90;;;28.04;59.82;100952.31;4957499;28;20442;-77
2023/09/12 08:54:06;;;;;;;27.77;18.15;;;28.70;99.90;;;27.89;60.14;100949.53;4965972;28;20548;-77
2023/09/12 08:56:35;;;;;;;29.48;17.10;;;28.40;99.90;;;27.85;60.86;100939.22;4967404;28;20118;-78
2023/09/12 08:59:03;;;;;;;26.77;15.73;;;28.20;99.90;;;27.54;60.65;100935.53;4947860;28;20062;-78
2023/09/12 09:01:32;;;;;;;27.17;16.88;;;28.10;99.90;;;27.72;61.90;100937.13;4962091;28;20027;-79
2023/09/12 09:04:03;;;;;;;28.10;16.00;;;28.20;99.90;;;28.27;60.21;100946.88;4968145;28;20043;-78
2023/09/12 09:06:35;;;;;;;20.52;11.88;;;28.50;99.90;;;28.61;58.73;100945.59;4953875;28;20038;-78
2023/09/12 09:09:02;;;;;;;23.90;12.27;;;28.60;99.90;;;28.32;58.24;100941.75;4967193;28;20023;-78
2023/09/12 09:11:28;;;;;;;18.85;10.60;;;28.70;99.90;;;28.40;58.51;100933.56;4961984;28;20563;-77
2023/09/12 09:13:56;;;;;;;14.45;9.85;;;28.60;99.90;;;28.43;58.00;100930.50;4961925;28;20037;-77
2023/09/12 09:16:23;;;;;;;16.83;10.07;;;28.60;99.90;;;28.29;57.60;100933.16;4967162;28;20026;-78
2023/09/12 09:19:09;;;;;;;13.90;8.95;;;28.60;99.90;;;28.32;57.83;100925.53;4947995;28;20130;-77
2023/09/12 09:21:38;;;;;;;15.57;8.93;;;28.80;99.90;;;28.62;56.63;100929.16;4968953;28;20042;-78
2023/09/12 09:24:09;;;;;;;17.27;8.65;;;28.90;99.90;;;28.83;56.86;100920.31;4961675;28;20471;-77
2023/09/12 09:26:50;;;;;;;16.33;8.25;;;29.00;99.90;;;28.82;56.08;100918.59;4965295;28;20042;-77
2023/09/12 09:29:21;;;;;;;15.15;7.65;;;29.10;99.90;;;28.96;55.90;100907.94;4962738;28;20047;-77
2023/09/12 09:31:51;;;;;;;15.57;6.65;;;29.20;99.90;;;28.81;54.79;100906.09;4947446;28;20137;-77
2023/09/12 09:34:24;;;;;;;12.48;6.53;;;29.30;99.90;;;29.27;54.56;100915.91;4961495;28;20034;-78
2023/09/12 09:36:52;;;;;;;13.23;6.72;;;29.60;99.90;;;29.54;53.95;100921.63;4946220;28;20413;-77
2023/09/12 09:39:21;;;;;;;13.15;6.78;;;29.90;99.90;;;29.96;53.68;100930.88;4954437;28;20058;-79
2023/09/12 09:41:49;;;;;;;13.63;6.57;;;30.20;99.90;;;30.26;52.88;100935.13;4966549;28;20043;-77
2023/09/12 09:44:16;;;;;;;6.75;4.15;;;30.10;99.90;;;29.49;51.55;100946.63;4963039;28;20030;-77
2023/09/12 09:46:54;;;;;;;8.13;3.50;;;30.00;99.90;;;29.36;50.80;100957.31;4964381;28;20031;-77
2023/09/12 09:49:21;;;;;;;5.53;3.45;;;29.80;99.00;;;29.12;50.60;100969.31;4963686;28;20489;-77
2023/09/12 09:51:47;;;;;;;9.60;4.70;;;29.60;99.90;;;28.96;52.24;100962.16;4980626;28;20046;-78
2023/09/12 09:54:17;;;;;;;8.63;4.80;;;29.60;99.90;;;29.11;52.87;100954.88;4954852;28;20050;-78
2023/09/12 09:56:55;;;;;;;7.82;4.63;;;29.50;99.90;;;29.19;52.58;100960.22;4953376;28;20035;-78